createdAt,value
2022-12-16T00:00:30.363Z,1.50
2022-12-16T00:02:59.060Z,1.77
2022-12-16T00:05:25.386Z,1.20
2022-12-16T00:07:51.758Z,1.35
2022-12-16T00:10:18.292Z,1.10
2022-12-16T00:12:44.604Z,1.30
2022-12-16T00:15:11.229Z,1.50
2022-12-16T00:17:37.710Z,1.00
2022-12-16T00:20:04.526Z,1.15
2022-12-16T00:22:30.860Z,1.15
2022-12-16T00:24:57.307Z,0.90
2022-12-16T00:27:23.667Z,1.25
2022-12-16T00:29:50.049Z,0.85
2022-12-16T00:32:16.419Z,0.80
2022-12-16T00:34:42.754Z,0.80
2022-12-16T00:37:11.117Z,0.73
2022-12-16T00:39:37.494Z,0.93
2022-12-16T00:42:03.832Z,0.75
2022-12-16T00:44:30.209Z,0.80
2022-12-16T00:46:56.515Z,0.63
2022-12-16T00:49:22.856Z,0.60
2022-12-16T00:51:49.580Z,0.80
2022-12-16T00:54:16.806Z,1.02
2022-12-16T00:56:43.201Z,1.20
2022-12-16T00:59:09.591Z,0.70
2022-12-16T01:01:36.033Z,0.80
2022-12-16T01:04:02.536Z,0.75
2022-12-16T01:06:28.957Z,0.77
2022-12-16T01:08:55.381Z,0.88
2022-12-16T01:11:21.862Z,0.80
2022-12-16T01:13:51.906Z,0.60
2022-12-16T01:16:18.724Z,0.70
2022-12-16T01:18:45.204Z,1.38
2022-12-16T01:21:12.500Z,0.85
2022-12-16T01:23:38.822Z,1.00
2022-12-16T01:26:06.126Z,0.85
2022-12-16T01:28:32.649Z,1.50
2022-12-16T01:31:01.958Z,0.90
2022-12-16T01:33:30.007Z,1.02
2022-12-16T01:36:01.225Z,0.90
2022-12-16T01:38:27.663Z,1.10
2022-12-16T01:40:55.211Z,0.70
2022-12-16T01:43:24.393Z,1.10
2022-12-16T01:45:51.506Z,1.15
2022-12-16T01:48:33.348Z,0.93
2022-12-16T01:51:02.734Z,0.75
2022-12-16T01:53:30.372Z,1.00
2022-12-16T01:55:58.907Z,1.20
2022-12-16T01:58:27.687Z,1.10
2022-12-16T02:00:54.610Z,1.10
2022-12-16T02:03:21.629Z,0.93
2022-12-16T02:05:48.623Z,0.70
2022-12-16T02:08:18.742Z,0.80
2022-12-16T02:10:48.229Z,1.00
2022-12-16T02:13:38.608Z,0.93
2022-12-16T02:16:16.700Z,1.25
2022-12-16T02:18:46.621Z,0.88
2022-12-16T02:21:13.581Z,1.08
2022-12-16T02:23:39.892Z,0.80
2022-12-16T02:26:15.912Z,0.70
2022-12-16T02:28:51.112Z,0.85
2022-12-16T02:31:23.349Z,0.95
2022-12-16T02:33:53.349Z,0.55
2022-12-16T02:36:19.641Z,0.77
2022-12-16T02:38:54.680Z,0.85
2022-12-16T02:41:29.886Z,0.63
2022-12-16T02:44:02.491Z,0.55
2022-12-16T02:46:30.598Z,0.60
2022-12-16T02:48:56.888Z,1.00
2022-12-16T02:51:25.160Z,0.50
2022-12-16T02:53:52.983Z,0.63
2022-12-16T02:56:38.073Z,0.60
2022-12-16T02:59:13.386Z,0.60
2022-12-16T03:02:18.646Z,0.55
2022-12-16T03:04:49.631Z,0.60
2022-12-16T03:07:17.706Z,0.85
2022-12-16T03:09:45.122Z,0.73
2022-12-16T03:12:14.256Z,0.80
2022-12-16T03:14:43.399Z,0.88
2022-12-16T03:17:10.065Z,0.90
2022-12-16T03:19:38.103Z,0.80
2022-12-16T03:22:04.758Z,0.80
2022-12-16T03:24:31.118Z,0.80
2022-12-16T03:27:18.593Z,0.77
2022-12-16T03:29:50.519Z,0.60
2022-12-16T03:32:28.389Z,0.50
2022-12-16T03:34:54.777Z,0.70
2022-12-16T03:37:22.324Z,0.57
2022-12-16T03:39:51.700Z,0.50
2022-12-16T03:42:18.171Z,0.68
2022-12-16T03:44:46.389Z,0.60
2022-12-16T03:47:15.844Z,0.60
2022-12-16T03:49:45.583Z,0.93
2022-12-16T03:52:11.973Z,0.60
2022-12-16T03:54:38.349Z,1.05
2022-12-16T03:57:04.823Z,0.95
2022-12-16T03:59:31.157Z,1.15
2022-12-16T04:01:57.844Z,0.60
2022-12-16T04:04:24.392Z,0.50
2022-12-16T04:07:10.736Z,0.50
2022-12-16T04:12:22.145Z,0.95
2022-12-16T04:15:07.271Z,0.60
2022-12-16T04:17:52.467Z,0.98
2022-12-16T04:20:37.935Z,0.70
2022-12-16T04:23:23.205Z,0.90
2022-12-16T04:25:49.782Z,1.00
2022-12-16T04:28:16.192Z,1.08
2022-12-16T04:30:42.667Z,0.80
2022-12-16T04:33:29.710Z,1.08
2022-12-16T04:36:14.748Z,0.95
2022-12-16T04:38:59.589Z,1.15
2022-12-16T04:41:44.620Z,0.60
2022-12-16T04:44:29.739Z,0.70
2022-12-16T04:47:15.191Z,1.23
2022-12-16T04:50:00.439Z,0.93
2022-12-16T04:52:45.497Z,1.20
2022-12-16T04:55:30.449Z,0.80
2022-12-16T04:58:16.683Z,1.20
2022-12-16T05:01:01.858Z,0.60
2022-12-16T05:03:47.293Z,0.80
2022-12-16T05:06:32.707Z,0.95
2022-12-16T05:09:17.904Z,1.10
2022-12-16T05:12:02.886Z,0.80
2022-12-16T05:14:48.133Z,0.93
2022-12-16T05:17:33.322Z,1.00
2022-12-16T05:20:18.512Z,0.88
2022-12-16T05:23:17.184Z,1.30
2022-12-16T05:26:02.187Z,0.98
2022-12-16T05:28:47.357Z,2.35
2022-12-16T05:31:36.963Z,1.83
2022-12-16T05:34:21.894Z,1.48
2022-12-16T05:37:06.741Z,1.88
2022-12-16T05:39:51.851Z,1.30
2022-12-16T05:42:36.837Z,1.20
2022-12-16T05:45:21.756Z,0.90
2022-12-16T05:48:07.473Z,1.20
2022-12-16T05:50:52.709Z,1.08
2022-12-16T05:53:51.441Z,1.20
2022-12-16T05:56:36.440Z,1.00
2022-12-16T05:59:21.451Z,1.00
2022-12-16T06:02:06.753Z,1.02
2022-12-16T06:04:51.607Z,0.60
2022-12-16T06:07:38.337Z,0.98
2022-12-16T06:10:23.495Z,0.90
2022-12-16T06:13:08.334Z,0.70
2022-12-16T06:15:53.661Z,1.08
2022-12-16T06:18:38.688Z,0.97
2022-12-16T06:21:23.938Z,1.00
2022-12-16T06:24:08.986Z,0.65
2022-12-16T06:26:54.193Z,0.93
2022-12-16T06:29:39.312Z,0.82
2022-12-16T06:32:24.456Z,0.77
2022-12-16T06:35:09.704Z,0.93
2022-12-16T06:37:54.857Z,1.50
2022-12-16T06:40:41.255Z,1.20
2022-12-16T06:43:26.260Z,1.35
2022-12-16T06:46:11.288Z,1.25
2022-12-16T06:48:56.163Z,1.05
2022-12-16T06:51:41.092Z,1.52
2022-12-16T06:54:25.758Z,1.00
2022-12-16T06:57:10.759Z,1.08
2022-12-16T06:59:55.868Z,1.52
2022-12-16T07:02:40.934Z,1.52
2022-12-16T07:05:25.817Z,1.50
2022-12-16T07:08:10.724Z,1.67
2022-12-16T07:11:03.406Z,2.05
2022-12-16T07:13:54.100Z,2.20
2022-12-16T07:16:39.308Z,1.60
2022-12-16T07:19:24.457Z,1.20
2022-12-16T07:22:09.256Z,1.42
2022-12-16T07:24:54.361Z,1.30
2022-12-16T07:27:39.525Z,1.35
2022-12-16T07:30:24.773Z,2.38
2022-12-16T07:33:09.946Z,1.90
2022-12-16T07:35:55.170Z,1.67
2022-12-16T07:38:40.553Z,1.65
2022-12-16T07:41:25.710Z,1.97
2022-12-16T07:44:10.755Z,1.77
2022-12-16T07:46:55.800Z,1.52
2022-12-16T07:49:41.041Z,1.55
2022-12-16T07:52:26.108Z,1.92
2022-12-16T07:55:11.207Z,1.38
2022-12-16T07:57:56.366Z,1.42
2022-12-16T08:00:41.486Z,1.70
2022-12-16T08:03:26.736Z,2.00
2022-12-16T08:06:11.546Z,1.40
2022-12-16T08:08:56.755Z,2.33
2022-12-16T08:11:41.806Z,1.58
2022-12-16T08:14:26.719Z,1.50
2022-12-16T08:17:11.906Z,1.63
2022-12-16T08:19:56.936Z,1.90
2022-12-16T08:22:42.061Z,2.20
2022-12-16T08:25:27.123Z,1.75
2022-12-16T08:28:12.859Z,1.40
2022-12-16T08:30:57.930Z,1.67
2022-12-16T08:33:42.929Z,1.67
2022-12-16T08:36:27.926Z,2.00
2022-12-16T08:39:13.148Z,2.03
2022-12-16T08:41:58.431Z,2.00
2022-12-16T08:44:43.458Z,1.33
2022-12-16T08:47:28.566Z,1.73
2022-12-16T08:50:13.660Z,1.60
2022-12-16T08:52:58.725Z,1.50
2022-12-16T08:55:43.800Z,2.30
2022-12-16T08:58:28.939Z,1.65
2022-12-16T09:01:14.030Z,1.85
2022-12-16T09:03:59.356Z,1.75
2022-12-16T09:06:44.625Z,2.45
2022-12-16T09:09:29.807Z,1.50
2022-12-16T09:12:14.885Z,1.95
2022-12-16T09:15:00.115Z,1.40
2022-12-16T09:17:44.957Z,2.08
2022-12-16T09:20:30.164Z,1.73
2022-12-16T09:23:15.175Z,1.90
2022-12-16T09:26:00.380Z,1.52
2022-12-16T09:28:45.197Z,1.95
2022-12-16T09:31:30.443Z,1.50
2022-12-16T09:34:15.344Z,1.55
2022-12-16T09:37:00.589Z,1.17
2022-12-16T09:39:45.391Z,1.25
2022-12-16T09:42:50.986Z,1.38
2022-12-16T09:45:36.222Z,1.75
2022-12-16T09:48:21.103Z,1.33
2022-12-16T09:51:05.789Z,1.40
2022-12-16T09:53:53.104Z,1.10
2022-12-16T09:56:43.955Z,1.10
2022-12-16T09:59:31.165Z,1.42
2022-12-16T10:02:16.544Z,1.42
2022-12-16T10:05:04.054Z,1.63
2022-12-16T10:10:55.025Z,1.50
2022-12-16T10:13:45.179Z,1.20
2022-12-16T10:16:48.813Z,1.70
2022-12-16T10:19:36.847Z,1.20
2022-12-16T10:22:36.701Z,1.77
2022-12-16T10:25:25.460Z,1.40
2022-12-16T10:28:12.095Z,1.45
2022-12-16T10:30:56.894Z,1.70
2022-12-16T10:33:44.200Z,1.67
2022-12-16T10:36:34.397Z,1.42
2022-12-16T10:39:21.068Z,1.88
2022-12-16T10:42:09.153Z,1.70
2022-12-16T10:44:56.340Z,1.17
2022-12-16T10:47:41.359Z,1.77
2022-12-16T10:50:30.908Z,1.65
2022-12-16T10:53:20.126Z,1.50
2022-12-16T10:56:13.353Z,1.90
2022-12-16T10:59:04.427Z,1.80
2022-12-16T11:01:49.821Z,0.93
2022-12-16T11:04:55.592Z,1.73
2022-12-16T11:07:42.051Z,1.40
2022-12-16T11:10:42.393Z,2.03
2022-12-16T11:13:34.711Z,1.50
2022-12-16T11:16:28.034Z,1.70
2022-12-16T11:19:12.835Z,1.50
2022-12-16T11:21:57.667Z,1.80
2022-12-16T11:24:43.062Z,1.55
2022-12-16T11:27:44.502Z,1.53
2022-12-16T11:30:40.422Z,1.30
2022-12-16T11:33:45.599Z,1.40
2022-12-16T11:36:36.557Z,1.40
2022-12-16T11:39:22.774Z,1.35
2022-12-16T11:42:08.797Z,1.48
2022-12-16T11:45:04.126Z,1.38
2022-12-16T11:47:55.432Z,1.50
2022-12-16T11:50:42.046Z,1.10
2022-12-16T11:53:35.959Z,1.60
2022-12-16T11:56:21.295Z,1.10
2022-12-16T11:59:07.103Z,1.50
2022-12-16T12:01:55.592Z,1.13
2022-12-16T12:04:41.381Z,1.38
2022-12-16T12:07:46.803Z,1.13
2022-12-16T12:10:51.047Z,1.63
2022-12-16T12:13:44.532Z,1.10
2022-12-16T12:16:37.593Z,1.25
2022-12-16T12:19:30.157Z,1.13
2022-12-16T12:22:27.852Z,1.05
2022-12-16T12:25:42.619Z,1.15
2022-12-16T12:28:38.851Z,1.25
2022-12-16T12:31:40.033Z,0.98
2022-12-16T12:34:43.840Z,1.50
2022-12-16T12:37:40.919Z,1.05
2022-12-16T12:41:01.561Z,1.13
2022-12-16T12:43:46.466Z,1.00
2022-12-16T12:46:39.666Z,1.50
2022-12-16T12:49:34.860Z,1.33
2022-12-16T12:52:35.302Z,0.90
2022-12-16T12:55:28.833Z,1.42
2022-12-16T12:58:14.700Z,1.27
2022-12-16T13:01:02.739Z,1.25
2022-12-16T13:03:57.219Z,1.10
2022-12-16T13:06:42.582Z,1.30
2022-12-16T13:09:43.186Z,0.90
2022-12-16T13:12:28.026Z,1.23
2022-12-16T13:15:14.318Z,1.45
2022-12-16T13:21:01.238Z,0.70
2022-12-16T13:23:46.496Z,1.00
2022-12-16T13:26:36.110Z,1.00
2022-12-16T13:29:27.674Z,0.95
2022-12-16T13:32:18.919Z,0.82
2022-12-16T13:35:04.067Z,1.00
2022-12-16T13:37:49.327Z,0.68
2022-12-16T13:40:39.433Z,1.15
2022-12-16T13:43:24.618Z,0.80
2022-12-16T13:46:15.749Z,0.73
2022-12-16T13:49:01.174Z,0.60
2022-12-16T13:51:55.452Z,0.90
2022-12-16T13:55:00.354Z,0.85
2022-12-16T13:57:47.400Z,1.00
2022-12-16T14:00:36.711Z,0.88
2022-12-16T14:03:23.326Z,1.10
2022-12-16T14:06:09.572Z,0.70
2022-12-16T14:08:56.154Z,0.60
2022-12-16T14:11:45.396Z,0.57
2022-12-16T14:14:38.094Z,0.80
2022-12-16T14:17:25.634Z,0.60
2022-12-16T14:20:29.605Z,1.20
2022-12-16T14:23:32.396Z,0.82
2022-12-16T14:26:20.512Z,0.50
2022-12-16T14:29:06.191Z,1.10
2022-12-16T14:31:54.943Z,1.00
2022-12-16T14:34:41.700Z,1.05
2022-12-16T14:37:37.610Z,1.60
2022-12-16T14:40:23.687Z,1.10
2022-12-16T14:43:12.934Z,1.20
2022-12-16T14:45:58.461Z,1.30
2022-12-16T14:48:49.546Z,1.17
2022-12-16T14:51:42.153Z,1.58
2022-12-16T14:54:35.252Z,1.13
2022-12-16T14:57:20.448Z,0.95
2022-12-16T15:00:05.729Z,1.20
2022-12-16T15:02:59.260Z,1.50
2022-12-16T15:05:49.521Z,1.30
2022-12-16T15:08:34.646Z,1.27
2022-12-16T15:11:19.880Z,1.10
2022-12-16T15:14:06.869Z,1.08
2022-12-16T15:16:53.758Z,1.63
2022-12-16T15:19:40.057Z,1.40
2022-12-16T15:25:09.714Z,1.35
2022-12-16T15:27:55.803Z,1.38
2022-12-16T15:31:07.438Z,1.30
2022-12-16T15:33:53.884Z,1.23
2022-12-16T15:36:41.808Z,1.60
2022-12-16T15:39:35.918Z,1.23
2022-12-16T15:42:20.718Z,0.60
2022-12-16T15:45:07.135Z,1.30
2022-12-16T15:47:53.385Z,1.33
2022-12-16T15:53:33.597Z,1.70
2022-12-16T15:56:18.788Z,1.33
2022-12-16T15:59:03.774Z,2.00
2022-12-16T16:02:02.934Z,1.40
2022-12-16T16:04:50.066Z,1.80
2022-12-16T16:07:36.518Z,1.70
2022-12-16T16:10:26.917Z,1.90
2022-12-16T16:13:14.785Z,1.80
2022-12-16T16:15:59.668Z,1.85
2022-12-16T16:18:44.824Z,1.80
2022-12-16T16:21:29.809Z,1.70
2022-12-16T16:24:14.947Z,1.77
2022-12-16T16:26:59.762Z,2.40
2022-12-16T16:29:44.859Z,1.85
2022-12-16T16:32:29.987Z,1.90
2022-12-16T16:35:15.213Z,1.90
2022-12-16T16:38:02.708Z,1.67
2022-12-16T16:40:52.273Z,1.48
2022-12-16T16:43:37.312Z,2.15
2022-12-16T16:46:26.400Z,2.10
2022-12-16T16:49:11.552Z,2.20
2022-12-16T16:51:56.709Z,2.22
2022-12-16T16:54:41.598Z,2.42
2022-12-16T16:57:27.191Z,2.40
2022-12-16T17:00:12.276Z,2.38
2022-12-16T17:02:57.454Z,2.85
2022-12-16T17:06:02.399Z,3.08
2022-12-16T17:08:47.476Z,2.95
2022-12-16T17:11:37.872Z,2.10
2022-12-16T17:14:22.929Z,2.63
2022-12-16T17:17:08.118Z,2.55
2022-12-16T17:19:53.233Z,2.28
2022-12-16T17:22:38.510Z,3.10
2022-12-16T17:25:23.882Z,3.20
2022-12-16T17:28:08.811Z,2.80
2022-12-16T17:30:53.960Z,2.70
2022-12-16T17:33:39.056Z,2.85
2022-12-16T17:36:28.554Z,3.30
2022-12-16T17:39:16.712Z,4.38
2022-12-16T17:42:01.734Z,3.60
2022-12-16T17:44:46.873Z,3.10
2022-12-16T17:47:32.083Z,3.80
2022-12-16T17:50:17.418Z,2.97
2022-12-16T17:53:02.567Z,2.90
2022-12-16T17:55:47.739Z,3.20
2022-12-16T17:58:32.842Z,3.20
2022-12-16T18:01:21.715Z,3.78
2022-12-16T18:04:06.890Z,3.65
2022-12-16T18:06:52.044Z,4.10
2022-12-16T18:09:37.084Z,4.38
2022-12-16T18:12:22.341Z,4.50
2022-12-16T18:15:07.479Z,3.92
2022-12-16T18:17:52.600Z,5.43
2022-12-16T18:20:37.768Z,5.20
2022-12-16T18:23:22.631Z,3.95
2022-12-16T18:26:17.174Z,5.22
2022-12-16T18:29:02.523Z,5.45
2022-12-16T18:31:47.663Z,5.45
2022-12-16T18:34:32.547Z,5.45
2022-12-16T18:37:17.701Z,6.05
2022-12-16T18:40:02.753Z,5.53
2022-12-16T18:42:47.604Z,5.30
2022-12-16T18:45:33.196Z,4.75
2022-12-16T18:48:18.207Z,4.57
2022-12-16T18:51:03.328Z,5.55
2022-12-16T18:53:49.984Z,5.68
2022-12-16T18:56:34.980Z,5.57
2022-12-16T18:59:20.010Z,5.35
2022-12-16T19:02:05.428Z,5.40
2022-12-16T19:04:50.412Z,5.93
2022-12-16T19:07:36.376Z,5.10
2022-12-16T19:10:21.584Z,6.25
2022-12-16T19:13:06.361Z,6.65
2022-12-16T19:15:51.521Z,4.45
2022-12-16T19:18:36.583Z,5.22
2022-12-16T19:21:21.867Z,3.45
2022-12-16T19:24:08.004Z,4.97
2022-12-16T19:29:38.404Z,5.05
2022-12-16T19:32:23.504Z,5.45
2022-12-16T19:35:08.797Z,5.25
2022-12-16T19:40:58.351Z,5.40
2022-12-16T19:43:43.298Z,5.43
2022-12-16T19:46:28.160Z,6.03
2022-12-16T19:49:13.022Z,4.75
2022-12-16T19:51:57.799Z,3.70
2022-12-16T19:54:43.240Z,5.75
2022-12-16T19:57:28.337Z,5.00
2022-12-16T20:00:15.626Z,5.18
2022-12-16T20:03:00.724Z,5.93
2022-12-16T20:05:45.707Z,6.70
2022-12-16T20:08:31.821Z,7.20
2022-12-16T20:11:16.877Z,7.10
2022-12-16T20:14:01.637Z,7.75
2022-12-16T20:16:46.823Z,7.32
2022-12-16T20:19:31.884Z,7.57
2022-12-16T20:22:17.011Z,7.78
2022-12-16T20:25:01.969Z,8.30
2022-12-16T20:27:47.012Z,7.47
2022-12-16T20:30:32.248Z,8.57
2022-12-16T20:33:17.389Z,7.80
2022-12-16T20:36:02.310Z,8.52
2022-12-16T20:38:47.473Z,8.85
2022-12-16T20:41:32.724Z,9.05
2022-12-16T20:44:17.442Z,9.00
2022-12-16T20:47:02.661Z,10.95
2022-12-16T20:49:47.785Z,10.20
2022-12-16T20:52:32.990Z,10.70
2022-12-16T20:55:18.191Z,11.07
2022-12-16T20:58:05.201Z,12.07
2022-12-16T21:00:50.481Z,11.30
2022-12-16T21:03:35.828Z,11.75
2022-12-16T21:06:22.308Z,11.90
2022-12-16T21:09:07.419Z,12.18
2022-12-16T21:11:52.382Z,11.80
2022-12-16T21:14:28.346Z,5.72
2022-12-16T21:14:41.283Z,11.25
2022-12-16T21:17:27.927Z,11.80
2022-12-16T21:20:13.049Z,11.05
2022-12-16T21:22:58.180Z,11.18
2022-12-16T21:25:43.028Z,12.48
2022-12-16T21:28:29.332Z,11.52
2022-12-16T21:33:59.483Z,11.45
2022-12-16T21:36:44.718Z,6.72
2022-12-16T21:39:29.734Z,8.93
2022-12-16T21:42:16.436Z,10.77
2022-12-16T21:45:01.384Z,8.45
2022-12-16T21:48:07.490Z,10.52
2022-12-16T21:50:55.536Z,10.23
2022-12-16T21:53:41.578Z,11.02
2022-12-16T21:56:27.238Z,11.80
2022-12-16T21:59:12.395Z,6.95
2022-12-16T22:01:57.536Z,9.93
2022-12-16T22:04:42.490Z,8.45
2022-12-16T22:07:27.340Z,11.57
2022-12-16T22:10:12.483Z,6.50
2022-12-16T22:12:57.462Z,10.88
2022-12-16T22:15:42.508Z,9.25
2022-12-16T22:18:27.633Z,8.95
2022-12-16T22:21:30.898Z,11.65
2022-12-16T22:24:20.548Z,14.73
2022-12-16T22:27:05.686Z,14.18
2022-12-16T22:29:50.614Z,9.80
2022-12-16T22:32:35.650Z,13.23
2022-12-16T22:35:20.841Z,15.10
2022-12-16T22:38:06.927Z,14.10
2022-12-16T22:40:51.808Z,12.88
2022-12-16T22:43:37.148Z,8.10
2022-12-16T22:46:22.245Z,16.93
2022-12-16T22:49:07.514Z,15.43
2022-12-16T22:51:53.960Z,16.90
2022-12-16T22:54:39.212Z,15.85
2022-12-16T22:57:24.339Z,16.70
2022-12-16T23:00:11.811Z,15.88
2022-12-16T23:02:56.935Z,15.82
2022-12-16T23:05:43.294Z,12.38
2022-12-16T23:11:17.285Z,10.30
2022-12-16T23:14:02.488Z,9.35
2022-12-16T23:16:52.570Z,9.93
2022-12-16T23:19:38.795Z,9.80
2022-12-16T23:22:23.764Z,8.38
2022-12-16T23:25:08.759Z,8.98
2022-12-16T23:27:54.854Z,8.73
2022-12-16T23:30:41.954Z,8.77
2022-12-16T23:33:28.248Z,9.00
2022-12-16T23:39:01.338Z,7.97
2022-12-16T23:41:46.468Z,9.68
2022-12-16T23:44:31.619Z,9.23
2022-12-16T23:47:16.852Z,9.68
2022-12-16T23:50:02.046Z,8.25
2022-12-16T23:52:48.439Z,8.68
2022-12-16T23:55:33.588Z,9.68
2022-12-16T23:58:19.515Z,9.05
